createdAt,value
2022-07-29T00:00:01.929Z,17.7
2022-07-29T00:01:01.505Z,17.7
2022-07-29T00:02:02.083Z,17.7
2022-07-29T00:03:01.718Z,17.7
2022-07-29T00:04:01.396Z,17.7
2022-07-29T00:05:01.926Z,17.7
2022-07-29T00:06:01.501Z,17.6
2022-07-29T00:07:02.075Z,17.6
2022-07-29T00:08:01.675Z,17.7
2022-07-29T00:09:01.254Z,17.7
2022-07-29T00:10:01.845Z,17.7
2022-07-29T00:11:01.424Z,17.7
2022-07-29T00:12:02.019Z,17.6
2022-07-29T00:13:01.597Z,17.6
2022-07-29T00:14:01.175Z,17.6
2022-07-29T00:15:01.747Z,17.6
2022-07-29T00:16:04.967Z,17.6
2022-07-29T00:17:01.869Z,17.6
2022-07-29T00:18:01.442Z,17.6
2022-07-29T00:19:02.511Z,17.5
2022-07-29T00:20:01.675Z,17.5
2022-07-29T00:21:01.263Z,17.5
2022-07-29T00:22:01.833Z,17.5
2022-07-29T00:23:01.407Z,17.5
2022-07-29T00:24:01.978Z,17.4
2022-07-29T00:25:01.549Z,17.4
2022-07-29T00:26:01.133Z,17.5
2022-07-29T00:27:01.719Z,17.5
2022-07-29T00:28:01.330Z,17.4
2022-07-29T00:29:32.218Z,17.4
2022-07-29T00:30:01.435Z,17.4
2022-07-29T00:31:02.046Z,17.4
2022-07-29T00:32:01.757Z,17.5
2022-07-29T00:33:01.221Z,17.4
2022-07-29T00:34:01.789Z,17.4
2022-07-29T00:35:01.374Z,17.4
2022-07-29T00:36:01.933Z,17.5
2022-07-29T00:37:01.521Z,17.4
2022-07-29T00:38:02.212Z,17.3
2022-07-29T00:39:01.805Z,17.4
2022-07-29T00:40:01.322Z,17.4
2022-07-29T00:41:01.877Z,17.4
2022-07-29T00:42:01.472Z,17.4
2022-07-29T00:43:01.576Z,17.4
2022-07-29T00:44:01.169Z,17.4
2022-07-29T00:45:00.745Z,17.3
2022-07-29T00:46:01.357Z,17.3
2022-07-29T00:47:00.993Z,17.4
2022-07-29T00:48:01.521Z,17.3
2022-07-29T00:49:01.162Z,17.4
2022-07-29T00:50:00.737Z,17.4
2022-07-29T00:51:01.333Z,17.3
2022-07-29T00:52:00.913Z,17.3
2022-07-29T00:53:01.509Z,17.3
2022-07-29T00:54:01.094Z,17.3
2022-07-29T00:55:03.730Z,17.3
2022-07-29T00:56:01.206Z,17.3
2022-07-29T00:57:00.784Z,17.4
2022-07-29T00:58:01.395Z,17.3
2022-07-29T00:59:00.974Z,17.3
2022-07-29T01:00:01.555Z,17.2
2022-07-29T01:01:01.155Z,17.3
2022-07-29T01:02:00.856Z,17.3
2022-07-29T01:03:01.412Z,17.3
2022-07-29T01:04:01.525Z,17.3
2022-07-29T01:05:01.109Z,17.3
2022-07-29T01:06:00.686Z,17.2
2022-07-29T01:07:01.283Z,17.2
2022-07-29T01:08:01.399Z,17.2
2022-07-29T01:09:01.272Z,17.1
2022-07-29T01:10:00.631Z,17.1
2022-07-29T01:11:01.204Z,17.2
2022-07-29T01:12:00.796Z,17.1
2022-07-29T01:13:01.362Z,17.2
2022-07-29T01:14:00.935Z,17.1
2022-07-29T01:15:01.530Z,17.1
2022-07-29T01:16:01.141Z,17.1
2022-07-29T01:17:00.732Z,17
2022-07-29T01:18:01.307Z,17
2022-07-29T01:19:00.803Z,16.9
2022-07-29T01:20:01.394Z,17
2022-07-29T01:21:00.972Z,16.9
2022-07-29T01:22:01.578Z,16.9
2022-07-29T01:23:01.165Z,16.9
2022-07-29T01:24:00.741Z,16.8
2022-07-29T01:25:01.315Z,16.7
2022-07-29T01:26:00.908Z,16.8
2022-07-29T01:27:01.475Z,16.8
2022-07-29T01:28:01.049Z,16.8
2022-07-29T01:29:00.625Z,16.8
2022-07-29T01:30:01.162Z,16.8
2022-07-29T01:31:00.745Z,16.8
2022-07-29T01:32:01.495Z,16.7
2022-07-29T01:33:01.061Z,16.8
2022-07-29T01:34:00.586Z,16.7
2022-07-29T01:35:01.164Z,16.7
2022-07-29T01:36:00.739Z,16.7
2022-07-29T01:37:01.331Z,16.8
2022-07-29T01:38:00.909Z,16.7
2022-07-29T01:39:01.501Z,16.7
2022-07-29T01:40:01.088Z,16.8
2022-07-29T01:41:00.650Z,16.8
2022-07-29T01:42:01.222Z,16.7
2022-07-29T01:43:00.813Z,16.7
2022-07-29T01:44:01.440Z,16.7
2022-07-29T01:45:01.019Z,16.7
2022-07-29T01:46:00.592Z,16.7
2022-07-29T01:47:01.187Z,16.7
2022-07-29T01:48:00.794Z,16.7
2022-07-29T01:49:01.404Z,16.7
2022-07-29T01:50:00.995Z,16.8
2022-07-29T01:51:01.566Z,16.7
2022-07-29T01:52:01.140Z,16.7
2022-07-29T01:53:00.737Z,16.7
2022-07-29T01:54:01.303Z,16.7
2022-07-29T01:55:00.876Z,16.5
2022-07-29T01:56:01.451Z,16.7
2022-07-29T01:57:01.025Z,16.7
2022-07-29T01:58:00.626Z,16.6
2022-07-29T01:59:01.191Z,16.7
2022-07-29T02:00:00.781Z,16.6
2022-07-29T02:01:01.342Z,16.7
2022-07-29T02:02:00.956Z,16.6
2022-07-29T02:03:01.515Z,16.7
2022-07-29T02:04:01.098Z,16.6
2022-07-29T02:05:00.730Z,16.6
2022-07-29T02:06:01.260Z,16.7
2022-07-29T02:07:00.835Z,16.7
2022-07-29T02:08:01.430Z,16.7
2022-07-29T02:09:01.003Z,16.6
2022-07-29T02:10:01.585Z,16.6
2022-07-29T02:11:01.163Z,16.6
2022-07-29T02:12:00.736Z,16.6
2022-07-29T02:13:01.326Z,16.6
2022-07-29T02:14:00.903Z,16.5
2022-07-29T02:15:01.478Z,16.5
2022-07-29T02:16:01.105Z,16.4
2022-07-29T02:17:00.645Z,16.4
2022-07-29T02:18:01.235Z,16.5
2022-07-29T02:19:00.813Z,16.5
2022-07-29T02:20:01.402Z,16.5
2022-07-29T02:21:00.978Z,16.5
2022-07-29T02:22:01.558Z,16.5
2022-07-29T02:23:01.150Z,16.5
2022-07-29T02:24:00.731Z,16.5
2022-07-29T02:25:01.299Z,16.5
2022-07-29T02:26:00.838Z,16.4
2022-07-29T02:27:01.437Z,16.4
2022-07-29T02:28:01.008Z,16.4
2022-07-29T02:29:01.582Z,16.3
2022-07-29T02:30:01.156Z,16.4
2022-07-29T02:31:00.781Z,16.3
2022-07-29T02:32:01.332Z,16.3
2022-07-29T02:33:00.912Z,16.3
2022-07-29T02:34:01.491Z,16.3
2022-07-29T02:35:01.073Z,16.3
2022-07-29T02:36:00.648Z,16.3
2022-07-29T02:37:01.231Z,16.3
2022-07-29T02:38:00.825Z,16.3
2022-07-29T02:39:01.383Z,16.3
2022-07-29T02:40:00.961Z,16.3
2022-07-29T02:41:01.531Z,16.2
2022-07-29T02:42:01.109Z,16.3
2022-07-29T02:43:00.707Z,16.3
2022-07-29T02:44:01.295Z,16.3
2022-07-29T02:45:00.915Z,16.3
2022-07-29T02:46:01.498Z,16.3
2022-07-29T02:47:01.167Z,16.4
2022-07-29T02:48:00.710Z,16.3
2022-07-29T02:49:01.368Z,16.3
2022-07-29T02:50:00.966Z,16.3
2022-07-29T02:51:01.531Z,16.2
2022-07-29T02:52:01.107Z,16.3
2022-07-29T02:53:00.682Z,16.2
2022-07-29T02:54:01.280Z,16.3
2022-07-29T02:55:00.857Z,16.3
2022-07-29T02:56:01.434Z,16.2
2022-07-29T02:57:01.006Z,16.3
2022-07-29T02:58:01.581Z,16.2
2022-07-29T02:59:01.177Z,16.2
2022-07-29T03:00:00.751Z,16.2
2022-07-29T03:01:01.327Z,16.2
2022-07-29T03:02:00.978Z,16.2
2022-07-29T03:03:01.497Z,16.3
2022-07-29T03:04:01.092Z,16.2
2022-07-29T03:05:00.941Z,16.2
2022-07-29T03:06:01.229Z,16.2
2022-07-29T03:07:00.805Z,16.2
2022-07-29T03:08:01.378Z,16.1
2022-07-29T03:09:00.994Z,16.1
2022-07-29T03:10:01.546Z,16
2022-07-29T03:11:01.143Z,16.1
2022-07-29T03:12:00.718Z,15.9
2022-07-29T03:13:01.290Z,15.9
2022-07-29T03:14:00.882Z,15.9
2022-07-29T03:15:01.453Z,15.8
2022-07-29T03:16:01.068Z,15.8
2022-07-29T03:17:00.612Z,15.9
2022-07-29T03:18:01.191Z,15.9
2022-07-29T03:19:00.766Z,16
2022-07-29T03:20:01.338Z,16
2022-07-29T03:21:00.931Z,16.1
2022-07-29T03:22:01.487Z,16.1
2022-07-29T03:23:01.062Z,16.1
2022-07-29T03:24:00.639Z,16.1
2022-07-29T03:25:01.211Z,16
2022-07-29T03:26:00.803Z,16.1
2022-07-29T03:27:01.368Z,16
2022-07-29T03:28:00.942Z,16.1
2022-07-29T03:29:01.518Z,16.1
2022-07-29T03:30:01.106Z,16.1
2022-07-29T03:31:00.744Z,16
2022-07-29T03:32:01.307Z,16.1
2022-07-29T03:33:01.293Z,16.1
2022-07-29T03:34:00.887Z,16
2022-07-29T03:35:01.484Z,16.1
2022-07-29T03:36:00.738Z,16
2022-07-29T03:37:01.319Z,16
2022-07-29T03:38:00.895Z,16
2022-07-29T03:39:01.486Z,16
2022-07-29T03:40:01.064Z,15.9
2022-07-29T03:41:00.648Z,16
2022-07-29T03:42:01.237Z,15.9
2022-07-29T03:43:00.814Z,15.9
2022-07-29T03:44:01.398Z,16
2022-07-29T03:45:01.017Z,16
2022-07-29T03:46:01.683Z,16
2022-07-29T03:47:01.316Z,16
2022-07-29T03:48:01.336Z,16
2022-07-29T03:49:01.018Z,15.9
2022-07-29T03:50:00.633Z,15.9
2022-07-29T03:51:01.227Z,15.9
2022-07-29T03:52:00.803Z,15.9
2022-07-29T03:53:01.391Z,15.9
2022-07-29T03:54:02.942Z,15.9
2022-07-29T03:55:01.504Z,15.9
2022-07-29T03:56:01.082Z,15.9
2022-07-29T03:57:00.659Z,15.9
2022-07-29T03:58:01.249Z,15.8
2022-07-29T03:59:00.824Z,15.8
2022-07-29T04:00:01.397Z,15.8
2022-07-29T04:01:00.975Z,15.8
2022-07-29T04:02:01.699Z,15.8
2022-07-29T04:03:01.370Z,15.8
2022-07-29T04:04:00.886Z,15.8
2022-07-29T04:05:01.383Z,15.8
2022-07-29T04:06:00.974Z,15.8
2022-07-29T04:07:01.589Z,15.8
2022-07-29T04:08:01.166Z,15.8
2022-07-29T04:09:00.759Z,15.9
2022-07-29T04:10:01.329Z,16
2022-07-29T04:11:00.909Z,16
2022-07-29T04:12:04.010Z,16
2022-07-29T04:13:01.061Z,16
2022-07-29T04:14:00.665Z,16
2022-07-29T04:15:01.240Z,16
2022-07-29T04:16:00.859Z,16
2022-07-29T04:17:01.399Z,16
2022-07-29T04:18:00.976Z,16
2022-07-29T04:19:01.570Z,16
2022-07-29T04:20:01.144Z,16.1
2022-07-29T04:21:00.719Z,16.1
2022-07-29T04:22:01.290Z,16.1
2022-07-29T04:23:00.880Z,16.1
2022-07-29T04:24:01.476Z,16.2
2022-07-29T04:25:03.867Z,16.1
2022-07-29T04:26:01.605Z,16.1
2022-07-29T04:27:01.183Z,16.2
2022-07-29T04:28:00.762Z,16.2
2022-07-29T04:29:01.358Z,16.2
2022-07-29T04:30:00.934Z,16.3
2022-07-29T04:31:01.557Z,16.2
2022-07-29T04:32:01.171Z,16.2
2022-07-29T04:33:00.747Z,16.3
2022-07-29T04:34:01.343Z,16.3
2022-07-29T04:35:00.923Z,16.3
2022-07-29T04:36:01.500Z,16.3
2022-07-29T04:37:01.074Z,16.3
2022-07-29T04:38:00.671Z,16.3
2022-07-29T04:39:01.240Z,16.3
2022-07-29T04:40:00.816Z,16.3
2022-07-29T04:41:01.392Z,16.4
2022-07-29T04:42:01.040Z,16.3
2022-07-29T04:43:01.629Z,16.4
2022-07-29T04:44:01.185Z,16.4
2022-07-29T04:45:01.133Z,16.4
2022-07-29T04:46:01.568Z,16.4
2022-07-29T04:47:01.106Z,16.4
2022-07-29T04:48:00.686Z,16.4
2022-07-29T04:49:01.302Z,16.4
2022-07-29T04:50:00.913Z,16.5
2022-07-29T04:51:01.487Z,16.4
2022-07-29T04:52:01.118Z,16.3
2022-07-29T04:53:00.633Z,16.4
2022-07-29T04:54:01.231Z,16.3
2022-07-29T04:55:00.822Z,16.3
2022-07-29T04:56:01.392Z,16.3
2022-07-29T04:57:00.971Z,16.2
2022-07-29T04:58:01.608Z,15.7
2022-07-29T04:59:01.043Z,15.5
2022-07-29T05:00:01.635Z,15.3
2022-07-29T05:01:01.290Z,15.4
2022-07-29T05:02:00.905Z,15.5
2022-07-29T05:03:01.713Z,15.3
2022-07-29T05:04:01.102Z,15.3
2022-07-29T05:05:00.696Z,15.2
2022-07-29T05:06:01.277Z,15.1
2022-07-29T05:07:00.851Z,15.2
2022-07-29T05:08:01.426Z,15.1
2022-07-29T05:09:01.000Z,15.1
2022-07-29T05:10:01.577Z,15
2022-07-29T05:11:11.246Z,14.9
2022-07-29T05:12:00.712Z,14.9
2022-07-29T05:13:01.291Z,15
2022-07-29T05:14:00.868Z,14.9
2022-07-29T05:15:01.220Z,15
2022-07-29T05:16:00.882Z,15
2022-07-29T05:17:01.381Z,14.9
2022-07-29T05:18:00.973Z,15
2022-07-29T05:19:01.540Z,14.9
2022-07-29T05:20:01.113Z,15.1
2022-07-29T05:21:00.689Z,15.1
2022-07-29T05:22:01.283Z,15.1
2022-07-29T05:23:00.860Z,15
2022-07-29T05:24:01.458Z,15
2022-07-29T05:25:04.366Z,14.9
2022-07-29T05:26:01.567Z,14.9
2022-07-29T05:27:01.151Z,14.8
2022-07-29T05:28:00.727Z,14.8
2022-07-29T05:29:01.318Z,14.7
2022-07-29T05:30:00.903Z,14.8
2022-07-29T05:31:01.512Z,14.8
2022-07-29T05:32:01.136Z,14.8
2022-07-29T05:33:00.712Z,14.9
2022-07-29T05:34:01.312Z,14.8
2022-07-29T05:35:00.888Z,14.9
2022-07-29T05:36:01.460Z,14.8
2022-07-29T05:37:01.033Z,14.8
2022-07-29T05:38:01.608Z,14.9
2022-07-29T05:39:01.199Z,14.8
2022-07-29T05:40:00.775Z,14.8
2022-07-29T05:41:01.354Z,14.8
2022-07-29T05:42:00.946Z,14.8
2022-07-29T05:43:01.501Z,14.9
2022-07-29T05:44:01.077Z,14.8
2022-07-29T05:45:00.655Z,14.8
2022-07-29T05:46:01.404Z,14.8
2022-07-29T05:47:00.938Z,14.8
2022-07-29T05:48:01.471Z,14.9
2022-07-29T05:49:01.124Z,14.9
2022-07-29T05:50:01.636Z,14.9
2022-07-29T05:51:01.213Z,14.8
2022-07-29T05:52:00.805Z,15
2022-07-29T05:53:01.375Z,15
2022-07-29T05:54:00.912Z,15.2
2022-07-29T05:55:01.489Z,15.1
2022-07-29T05:56:01.063Z,15.2
2022-07-29T05:57:01.652Z,15.3
2022-07-29T05:58:01.227Z,15.2
2022-07-29T05:59:00.801Z,15.3
2022-07-29T06:00:01.397Z,15.3
2022-07-29T06:01:01.013Z,15.3
2022-07-29T06:02:01.631Z,15.4
2022-07-29T06:03:01.218Z,15.4
2022-07-29T06:04:00.812Z,15.3
2022-07-29T06:05:01.481Z,15.3
2022-07-29T06:06:01.025Z,15.4
2022-07-29T06:07:01.615Z,15.3
2022-07-29T06:08:01.186Z,15.3
2022-07-29T06:09:00.764Z,15.4
2022-07-29T06:10:01.300Z,15.4
2022-07-29T06:11:00.874Z,15.5
2022-07-29T06:12:01.470Z,15.5
2022-07-29T06:13:01.048Z,15.5
2022-07-29T06:14:01.622Z,15.6
2022-07-29T06:15:01.199Z,15.5
2022-07-29T06:16:00.905Z,15.5
2022-07-29T06:17:01.456Z,15.5
2022-07-29T06:18:01.839Z,15.5
2022-07-29T06:19:00.875Z,15.5
2022-07-29T06:20:01.192Z,15.5
2022-07-29T06:21:00.767Z,15.7
2022-07-29T06:22:01.357Z,15.6
2022-07-29T06:23:00.942Z,15.6
2022-07-29T06:24:01.534Z,15.6
2022-07-29T06:25:01.113Z,15.7
2022-07-29T06:26:00.681Z,15.6
2022-07-29T06:27:01.252Z,15.8
2022-07-29T06:28:00.833Z,15.8
2022-07-29T06:29:01.425Z,15.8
2022-07-29T06:30:01.000Z,15.8
2022-07-29T06:31:01.635Z,15.8
2022-07-29T06:32:01.223Z,15.9
2022-07-29T06:33:00.799Z,16
2022-07-29T06:34:01.391Z,15.9
2022-07-29T06:35:24.731Z,16.2
2022-07-29T06:36:01.518Z,16.2
2022-07-29T06:37:01.208Z,16.3
2022-07-29T06:38:00.794Z,16.4
2022-07-29T06:39:01.370Z,16.5
2022-07-29T06:40:00.909Z,16.6
2022-07-29T06:41:01.519Z,16.6
2022-07-29T06:42:01.121Z,16.6
2022-07-29T06:43:00.689Z,16.7
2022-07-29T06:44:01.263Z,16.8
2022-07-29T06:45:01.283Z,16.9
2022-07-29T06:46:00.962Z,16.9
2022-07-29T06:47:01.652Z,17
2022-07-29T06:48:01.227Z,17.1
2022-07-29T06:49:00.891Z,17.1
2022-07-29T06:50:01.389Z,17
2022-07-29T06:51:00.963Z,17.1
2022-07-29T06:52:01.555Z,17.2
2022-07-29T06:53:01.128Z,17.3
2022-07-29T06:54:02.538Z,17.3
2022-07-29T06:55:01.239Z,17.4
2022-07-29T06:56:00.818Z,17.4
2022-07-29T06:57:01.425Z,17.4
2022-07-29T06:58:01.001Z,17.3
2022-07-29T06:59:01.686Z,17.3
2022-07-29T07:00:01.230Z,17.3
2022-07-29T07:01:00.852Z,17.1
2022-07-29T07:02:01.447Z,17.2
2022-07-29T07:03:01.051Z,17.2
2022-07-29T07:04:01.630Z,17.2
2022-07-29T07:05:01.220Z,17.3
2022-07-29T07:06:00.795Z,17.2
2022-07-29T07:07:01.367Z,17.2
2022-07-29T07:08:00.950Z,17.3
2022-07-29T07:09:01.536Z,17.4
2022-07-29T07:10:01.125Z,17.5
2022-07-29T07:11:00.696Z,17.5
2022-07-29T07:12:01.272Z,17.5
2022-07-29T07:13:00.859Z,17.5
2022-07-29T07:14:03.685Z,17.8
2022-07-29T07:15:00.978Z,17.9
2022-07-29T07:16:01.552Z,17.9
2022-07-29T07:17:01.205Z,17.9
2022-07-29T07:18:00.726Z,17.8
2022-07-29T07:19:01.307Z,17.8
2022-07-29T07:20:00.901Z,17.9
2022-07-29T07:21:01.460Z,17.8
2022-07-29T07:22:01.035Z,17.8
2022-07-29T07:23:01.622Z,17.8
2022-07-29T07:24:01.201Z,17.9
2022-07-29T07:25:00.880Z,17.9
2022-07-29T07:26:01.454Z,17.9
2022-07-29T07:27:01.035Z,17.9
2022-07-29T07:28:01.603Z,18.1
2022-07-29T07:29:01.193Z,18.2
2022-07-29T07:30:00.769Z,18.3
2022-07-29T07:31:01.341Z,18.3
2022-07-29T07:32:01.486Z,18.3
2022-07-29T07:33:01.127Z,18.3
2022-07-29T07:34:00.716Z,18.3
2022-07-29T07:35:01.287Z,18.3
2022-07-29T07:36:00.861Z,18.5
2022-07-29T07:37:01.436Z,18.7
2022-07-29T07:38:01.014Z,18.7
2022-07-29T07:39:01.604Z,18.6
2022-07-29T07:40:01.177Z,18.5
2022-07-29T07:41:00.749Z,18.6
2022-07-29T07:42:01.324Z,18.6
2022-07-29T07:43:00.902Z,18.7
2022-07-29T07:44:01.494Z,18.8
2022-07-29T07:45:13.342Z,18.7
2022-07-29T07:46:01.659Z,18.7
2022-07-29T07:47:03.780Z,18.6
2022-07-29T07:48:00.831Z,18.6
2022-07-29T07:49:01.428Z,18.6
2022-07-29T07:50:01.056Z,18.6
2022-07-29T07:51:01.647Z,18.6
2022-07-29T07:52:01.223Z,18.6
2022-07-29T07:53:00.796Z,18.6
2022-07-29T07:54:01.366Z,18.7
2022-07-29T07:55:01.316Z,18.9
2022-07-29T07:56:16.983Z,18.9
2022-07-29T07:57:01.168Z,18.9
2022-07-29T07:58:00.747Z,19
2022-07-29T07:59:01.323Z,18.9
2022-07-29T08:00:00.906Z,18.9
2022-07-29T08:01:01.560Z,19
2022-07-29T08:02:01.289Z,19
2022-07-29T08:03:00.731Z,19
2022-07-29T08:04:01.297Z,18.9
2022-07-29T08:05:00.872Z,18.9
2022-07-29T08:06:01.458Z,19
2022-07-29T08:07:01.048Z,19.1
2022-07-29T08:08:01.607Z,19.1
2022-07-29T08:09:19.721Z,19.2
2022-07-29T08:10:00.715Z,19.2
2022-07-29T08:11:04.255Z,19.2
2022-07-29T08:12:00.838Z,19.2
2022-07-29T08:13:01.411Z,19.5
2022-07-29T08:14:00.998Z,19.7
2022-07-29T08:15:01.564Z,19.7
2022-07-29T08:16:01.333Z,19.5
2022-07-29T08:17:00.827Z,19.8
2022-07-29T08:18:04.212Z,19.8
2022-07-29T08:19:00.846Z,19.7
2022-07-29T08:20:01.417Z,19.8
2022-07-29T08:21:01.001Z,20
2022-07-29T08:22:01.583Z,20
2022-07-29T08:23:01.153Z,19.9
2022-07-29T08:24:04.117Z,19.9
2022-07-29T08:25:01.279Z,19.7
2022-07-29T08:26:00.852Z,19.7
2022-07-29T08:27:01.426Z,19.7
2022-07-29T08:28:00.998Z,19.5
2022-07-29T08:29:01.590Z,19.6
2022-07-29T08:30:01.163Z,19.7
2022-07-29T08:31:00.738Z,19.7
2022-07-29T08:32:01.381Z,19.8
2022-07-29T08:33:00.769Z,19.9
2022-07-29T08:34:01.571Z,19.9
2022-07-29T08:35:01.146Z,19.9
2022-07-29T08:36:00.717Z,19.9
2022-07-29T08:37:01.289Z,19.8
2022-07-29T08:38:00.890Z,19.8
2022-07-29T08:39:01.093Z,19.8
2022-07-29T08:40:01.667Z,19.8
2022-07-29T08:41:01.238Z,19.7
2022-07-29T08:42:01.059Z,19.8
2022-07-29T08:43:01.405Z,19.8
2022-07-29T08:44:00.992Z,20
2022-07-29T08:45:01.578Z,20
2022-07-29T08:46:01.198Z,19.8
2022-07-29T08:47:00.744Z,19.8
2022-07-29T08:48:01.320Z,19.9
2022-07-29T08:49:00.987Z,19.9
2022-07-29T08:50:01.486Z,19.8
2022-07-29T08:51:01.078Z,19.7
2022-07-29T08:52:01.052Z,19.6
2022-07-29T08:53:01.228Z,19.6
2022-07-29T08:54:00.801Z,19.6
2022-07-29T08:55:01.374Z,19.6
2022-07-29T08:56:00.962Z,19.5
2022-07-29T08:57:01.540Z,19.7
2022-07-29T08:58:01.112Z,19.6
2022-07-29T08:59:00.683Z,19.3
2022-07-29T09:00:04.911Z,19.5
2022-07-29T09:01:00.814Z,19.6
2022-07-29T09:02:01.487Z,19.4
2022-07-29T09:03:00.931Z,19.4
2022-07-29T09:04:01.551Z,19.5
2022-07-29T09:05:01.163Z,19.5
2022-07-29T09:06:00.752Z,19.3
2022-07-29T09:07:01.320Z,19.1
2022-07-29T09:08:00.899Z,19.2
2022-07-29T09:09:01.474Z,19
2022-07-29T09:10:01.047Z,18.8
2022-07-29T09:11:03.852Z,18.8
2022-07-29T09:12:01.177Z,18.8
2022-07-29T09:13:00.750Z,18.9
2022-07-29T09:14:01.322Z,19
2022-07-29T09:15:00.895Z,19
2022-07-29T09:16:04.552Z,19.2
2022-07-29T09:17:01.553Z,19.2
2022-07-29T09:18:01.346Z,18.9
2022-07-29T09:19:00.928Z,19
2022-07-29T09:20:01.503Z,18.9
2022-07-29T09:21:01.073Z,19.1
2022-07-29T09:22:03.174Z,19.1
2022-07-29T09:23:01.208Z,18.9
2022-07-29T09:24:00.787Z,18.9
2022-07-29T09:25:01.361Z,19
2022-07-29T09:26:00.934Z,19
2022-07-29T09:27:01.513Z,19
2022-07-29T09:28:01.116Z,19.1
2022-07-29T09:29:01.667Z,19.1
2022-07-29T09:30:01.243Z,19
2022-07-29T09:31:00.816Z,19.1
2022-07-29T09:32:01.461Z,19
2022-07-29T09:33:01.058Z,18.9
2022-07-29T09:34:01.626Z,18.8
2022-07-29T09:35:01.200Z,18.7
2022-07-29T09:36:00.773Z,18.7
2022-07-29T09:37:01.456Z,18.7
2022-07-29T09:38:01.028Z,18.6
2022-07-29T09:39:01.602Z,18.6
2022-07-29T09:40:01.174Z,18.5
2022-07-29T09:41:01.150Z,18.7
2022-07-29T09:42:01.298Z,18.7
2022-07-29T09:43:00.874Z,18.7
2022-07-29T09:44:01.445Z,18.7
2022-07-29T09:45:01.037Z,18.6
2022-07-29T09:46:01.605Z,18.5
2022-07-29T09:47:01.252Z,18.5
2022-07-29T09:48:00.846Z,18.5
2022-07-29T09:49:01.448Z,18.6
2022-07-29T09:50:01.244Z,18.5
2022-07-29T09:51:01.640Z,18.5
2022-07-29T09:52:01.214Z,18.5
2022-07-29T09:53:00.787Z,18.5
2022-07-29T09:54:01.363Z,18.4
2022-07-29T09:55:00.956Z,18.3
2022-07-29T09:56:01.543Z,18.3
2022-07-29T09:57:01.121Z,18.3
2022-07-29T09:58:00.697Z,18.3
2022-07-29T09:59:01.271Z,18.3
2022-07-29T10:00:00.863Z,18.3
2022-07-29T10:01:01.532Z,18.2
2022-07-29T10:02:01.103Z,18.1
2022-07-29T10:03:01.726Z,18
2022-07-29T10:04:01.315Z,17.9
2022-07-29T10:05:00.918Z,17.8
2022-07-29T10:06:01.472Z,17.8
2022-07-29T10:07:04.588Z,17.8
2022-07-29T10:08:01.580Z,18
2022-07-29T10:09:01.149Z,18.2
2022-07-29T10:10:00.735Z,18.4
2022-07-29T10:11:01.303Z,18.6
2022-07-29T10:12:01.119Z,18.6
2022-07-29T10:13:06.308Z,18.6
2022-07-29T10:14:01.005Z,18.4
2022-07-29T10:15:01.578Z,18.4
2022-07-29T10:16:01.267Z,18.3
2022-07-29T10:17:00.730Z,18.4
2022-07-29T10:18:01.368Z,18.3
2022-07-29T10:19:00.959Z,18.2
2022-07-29T10:20:01.534Z,18.2
2022-07-29T10:21:00.844Z,18.3
2022-07-29T10:22:01.713Z,18.4
2022-07-29T10:23:01.089Z,18.4
2022-07-29T10:24:01.778Z,18.3
2022-07-29T10:25:01.381Z,18.2
2022-07-29T10:26:00.893Z,18.4
2022-07-29T10:27:01.465Z,18.4
2022-07-29T10:28:01.059Z,18.4
2022-07-29T10:29:01.638Z,18.3
2022-07-29T10:30:01.207Z,18.4
2022-07-29T10:31:00.819Z,18.5
2022-07-29T10:32:01.348Z,18.7
2022-07-29T10:33:00.920Z,18.5
2022-07-29T10:34:01.511Z,18.2
2022-07-29T10:35:01.082Z,18.2
2022-07-29T10:36:01.701Z,18.2
2022-07-29T10:37:01.320Z,18.3
2022-07-29T10:38:00.893Z,18.2
2022-07-29T10:39:01.014Z,18.2
2022-07-29T10:40:01.564Z,18.2
2022-07-29T10:41:00.711Z,18.2
2022-07-29T10:42:01.292Z,18.1
2022-07-29T10:43:00.845Z,18
2022-07-29T10:44:01.520Z,18.1
2022-07-29T10:45:01.096Z,18.2
2022-07-29T10:46:01.678Z,18.3
2022-07-29T10:47:01.341Z,18.4
2022-07-29T10:48:00.931Z,18.4
2022-07-29T10:49:01.522Z,18.3
2022-07-29T10:50:01.648Z,18.3
2022-07-29T10:51:01.373Z,18.2
2022-07-29T10:52:00.969Z,18.2
2022-07-29T10:53:01.567Z,18.3
2022-07-29T10:54:01.101Z,18.2
2022-07-29T10:55:01.672Z,18.3
2022-07-29T10:56:01.596Z,18.2
2022-07-29T10:57:01.132Z,18.2
2022-07-29T10:58:01.478Z,18.3
2022-07-29T10:59:01.127Z,18.3
2022-07-29T11:00:00.714Z,18.3
2022-07-29T11:01:01.314Z,18.2
2022-07-29T11:02:15.911Z,18.3
2022-07-29T11:03:01.538Z,18.3
2022-07-29T11:04:00.938Z,18.3
2022-07-29T11:05:00.785Z,18.3
2022-07-29T11:06:01.369Z,18.4
2022-07-29T11:07:01.018Z,18.4
2022-07-29T11:08:02.282Z,18.3
2022-07-29T11:09:00.962Z,18.2
2022-07-29T11:10:00.704Z,18.3
2022-07-29T11:11:01.280Z,18.3
2022-07-29T11:12:01.118Z,18.3
2022-07-29T11:13:01.380Z,18.3
2022-07-29T11:14:01.683Z,18.2
2022-07-29T11:15:01.578Z,18.1
2022-07-29T11:16:01.609Z,18.1
2022-07-29T11:17:00.993Z,18.1
2022-07-29T11:18:01.615Z,18.2
2022-07-29T11:19:01.187Z,18.1
2022-07-29T11:20:01.426Z,18.1
2022-07-29T11:21:00.997Z,18
2022-07-29T11:22:01.672Z,18.1
2022-07-29T11:23:01.240Z,18.1
2022-07-29T11:24:00.803Z,18.1
2022-07-29T11:25:01.395Z,18.2
2022-07-29T11:26:01.012Z,18.1
2022-07-29T11:27:01.856Z,18.2
2022-07-29T11:28:01.246Z,18.2
2022-07-29T11:29:00.821Z,18.2
2022-07-29T11:30:01.462Z,18.3
2022-07-29T11:31:00.950Z,18.3
2022-07-29T11:32:01.427Z,18.3
2022-07-29T11:33:01.062Z,18.3
2022-07-29T11:34:05.548Z,18.3
2022-07-29T11:35:01.230Z,18.2
2022-07-29T11:36:03.021Z,18.3
2022-07-29T11:37:01.300Z,18.3
2022-07-29T11:38:00.873Z,18.3
2022-07-29T11:39:01.461Z,18.3
2022-07-29T11:40:02.136Z,18.3
2022-07-29T11:41:01.016Z,18.3
2022-07-29T11:42:04.918Z,18.4
2022-07-29T11:43:01.417Z,18.3
2022-07-29T11:44:01.241Z,18.3
2022-07-29T11:45:04.240Z,18.3
2022-07-29T11:46:01.541Z,18.3
2022-07-29T11:47:01.136Z,18.2
2022-07-29T11:48:19.649Z,18.2
2022-07-29T11:49:00.897Z,18.2
2022-07-29T11:50:00.973Z,18.3
2022-07-29T11:51:01.113Z,18.4
2022-07-29T11:52:00.994Z,18.4
2022-07-29T11:53:01.190Z,18.5
2022-07-29T11:54:04.330Z,18.7
2022-07-29T11:55:09.744Z,18.8
2022-07-29T11:56:00.818Z,18.9
2022-07-29T11:57:01.393Z,19
2022-07-29T11:58:03.603Z,19.1
2022-07-29T11:59:01.514Z,19.2
2022-07-29T12:00:04.843Z,19.3
2022-07-29T12:01:04.337Z,19.3
2022-07-29T12:02:33.561Z,19.4
2022-07-29T12:03:00.730Z,19.4
2022-07-29T12:04:01.364Z,19.4
2022-07-29T12:05:00.957Z,19.3
2022-07-29T12:06:01.507Z,19.3
2022-07-29T12:07:01.080Z,19.4
2022-07-29T12:08:01.670Z,19.4
2022-07-29T12:09:01.245Z,19.5
2022-07-29T12:10:00.888Z,19.6
2022-07-29T12:11:01.482Z,19.7
2022-07-29T12:12:05.038Z,19.7
2022-07-29T12:13:01.287Z,19.9
2022-07-29T12:14:00.985Z,19.9
2022-07-29T12:15:01.569Z,20
2022-07-29T12:16:01.298Z,20
2022-07-29T12:17:01.005Z,20
2022-07-29T12:18:03.970Z,20
2022-07-29T12:19:02.211Z,19.9
2022-07-29T12:20:01.162Z,19.9
2022-07-29T12:21:03.500Z,19.9
2022-07-29T12:22:02.267Z,19.9
2022-07-29T12:23:01.037Z,19.7
2022-07-29T12:24:06.054Z,19.9
2022-07-29T12:25:11.728Z,19.9
2022-07-29T12:26:01.256Z,20
2022-07-29T12:27:02.425Z,20
2022-07-29T12:28:01.160Z,20
2022-07-29T12:29:02.294Z,20.1
2022-07-29T12:30:01.076Z,20.1
2022-07-29T12:31:01.686Z,20
2022-07-29T12:32:01.868Z,20.1
2022-07-29T12:33:01.519Z,20.1
2022-07-29T12:34:01.096Z,20.3
2022-07-29T12:35:01.669Z,20.3
2022-07-29T12:36:11.730Z,20.3
2022-07-29T12:37:00.797Z,20.3
2022-07-29T12:38:01.370Z,20.5
2022-07-29T12:39:01.043Z,20.5
2022-07-29T12:40:01.611Z,20.4
2022-07-29T12:41:01.199Z,20.5
2022-07-29T12:42:04.292Z,20.7
2022-07-29T12:43:01.327Z,20.8
2022-07-29T12:44:00.919Z,20.9
2022-07-29T12:45:01.486Z,20.8
2022-07-29T12:46:01.066Z,21
2022-07-29T12:47:01.634Z,21.1
2022-07-29T12:48:01.207Z,21
2022-07-29T12:49:00.810Z,21
2022-07-29T12:50:01.337Z,21.2
2022-07-29T12:51:00.914Z,20.9
2022-07-29T12:52:01.487Z,21
2022-07-29T12:53:01.130Z,20.8
2022-07-29T12:54:01.664Z,20.8
2022-07-29T12:55:01.239Z,21
2022-07-29T12:56:00.814Z,21.1
2022-07-29T12:57:01.390Z,21.3
2022-07-29T12:58:00.964Z,21.4
2022-07-29T12:59:01.555Z,21.4
2022-07-29T13:00:01.142Z,21.6
2022-07-29T13:01:01.746Z,21.7
2022-07-29T13:02:01.564Z,21.7
2022-07-29T13:03:00.945Z,21.9
2022-07-29T13:04:01.541Z,21.9
2022-07-29T13:05:01.241Z,21.9
2022-07-29T13:06:01.701Z,22.1
2022-07-29T13:07:01.276Z,22.5
2022-07-29T13:08:00.853Z,22.4
2022-07-29T13:09:01.091Z,22.5
2022-07-29T13:10:01.661Z,22.3
2022-07-29T13:11:01.234Z,22.4
2022-07-29T13:12:01.046Z,22.7
2022-07-29T13:13:01.390Z,22.8
2022-07-29T13:14:05.759Z,22.9
2022-07-29T13:15:01.534Z,22.8
2022-07-29T13:16:01.111Z,23
2022-07-29T13:17:01.756Z,22.8
2022-07-29T13:18:01.346Z,22.9
2022-07-29T13:19:00.921Z,22.9
2022-07-29T13:20:01.513Z,22.9
2022-07-29T13:21:01.046Z,22.8
2022-07-29T13:22:01.623Z,22.9
2022-07-29T13:23:01.196Z,22.6